createdAt,value
2017-11-28T00:00:15.292Z,70.98
2017-11-28T00:01:15.716Z,71.07
2017-11-28T00:02:16.143Z,71.17
2017-11-28T00:03:16.580Z,70.50
2017-11-28T00:04:16.990Z,71.17
2017-11-28T00:05:17.400Z,71.07
2017-11-28T00:06:17.827Z,71.36
2017-11-28T00:07:18.244Z,71.45
2017-11-28T00:08:18.664Z,71.45
2017-11-28T00:09:19.094Z,71.55
2017-11-28T00:10:19.513Z,71.73
2017-11-28T00:11:19.939Z,71.45
2017-11-28T00:12:20.363Z,71.45
2017-11-28T00:13:20.773Z,71.07
2017-11-28T00:14:21.194Z,71.73
2017-11-28T00:15:21.627Z,71.64
2017-11-28T00:16:22.045Z,71.92
2017-11-28T00:17:22.460Z,72.21
2017-11-28T00:18:22.882Z,72.40
2017-11-28T00:19:23.306Z,72.68
2017-11-28T00:20:23.726Z,73.72
2017-11-28T00:21:24.154Z,73.54
2017-11-28T00:22:24.570Z,73.54
2017-11-28T00:23:24.993Z,73.63
2017-11-28T00:24:25.429Z,73.72
2017-11-28T00:25:25.836Z,73.82
2017-11-28T00:26:26.255Z,73.35
2017-11-28T00:27:26.683Z,73.54
2017-11-28T00:28:27.106Z,72.97
2017-11-28T00:29:27.521Z,73.07
2017-11-28T00:30:27.944Z,73.44
2017-11-28T00:31:28.376Z,73.44
2017-11-28T00:32:28.788Z,74.39
2017-11-28T00:33:29.207Z,74.49
2017-11-28T00:34:29.628Z,76.29
2017-11-28T00:35:30.054Z,76.20
2017-11-28T00:36:30.473Z,76.57
2017-11-28T00:37:30.896Z,76.76
2017-11-28T00:38:31.319Z,76.48
2017-11-28T00:39:31.739Z,77.71
2017-11-28T00:40:32.162Z,78.09
2017-11-28T00:41:32.583Z,78.66
2017-11-28T00:42:33.011Z,78.95
2017-11-28T00:43:33.423Z,79.33
2017-11-28T00:44:33.854Z,79.90
2017-11-28T00:45:34.274Z,79.80
2017-11-28T00:46:34.691Z,79.04
2017-11-28T00:47:35.114Z,79.23
2017-11-28T00:48:35.536Z,79.23
2017-11-28T00:49:35.958Z,78.28
2017-11-28T00:50:36.376Z,78.66
2017-11-28T00:51:36.798Z,78.66
2017-11-28T00:52:37.224Z,78.56
2017-11-28T00:53:37.644Z,77.81
2017-11-28T00:54:38.066Z,78.19
2017-11-28T00:55:38.487Z,77.71
2017-11-28T00:56:38.912Z,77.81
2017-11-28T00:57:39.335Z,78.00
2017-11-28T00:58:39.760Z,77.81
2017-11-28T00:59:40.177Z,78.09
2017-11-28T01:00:40.603Z,78.38
2017-11-28T01:01:41.022Z,78.75
2017-11-28T01:02:41.444Z,78.66
2017-11-28T01:03:41.869Z,79.04
2017-11-28T01:04:42.285Z,79.42
2017-11-28T01:05:42.715Z,79.90
2017-11-28T01:06:43.126Z,80.18
2017-11-28T01:07:43.554Z,79.71
2017-11-28T01:08:43.973Z,80.75
2017-11-28T01:09:44.412Z,80.18
2017-11-28T01:10:44.819Z,79.90
2017-11-28T01:11:45.240Z,79.90
2017-11-28T01:12:45.663Z,80.37
2017-11-28T01:13:46.084Z,80.75
2017-11-28T01:14:46.506Z,83.40
2017-11-28T01:15:46.927Z,84.83
2017-11-28T01:16:47.351Z,83.69
2017-11-28T01:17:47.770Z,83.31
2017-11-28T01:18:48.193Z,83.40
2017-11-28T01:19:48.615Z,83.03
2017-11-28T01:20:49.036Z,82.88
2017-11-28T01:21:49.458Z,84.49
2017-11-28T01:22:49.888Z,84.07
2017-11-28T01:23:50.305Z,83.64
2017-11-28T01:24:50.730Z,83.36
2017-11-28T01:25:51.148Z,83.36
2017-11-28T01:26:51.567Z,85.35
2017-11-28T01:27:51.989Z,85.53
2017-11-28T01:28:52.413Z,86.77
2017-11-28T01:29:52.833Z,87.62
2017-11-28T01:30:53.261Z,87.24
2017-11-28T01:31:53.679Z,86.68
2017-11-28T01:32:54.103Z,88.10
2017-11-28T01:33:54.523Z,87.43
2017-11-28T01:34:54.942Z,87.24
2017-11-28T01:35:55.378Z,88.39
2017-11-28T01:36:55.786Z,89.05
2017-11-28T01:37:56.211Z,89.81
2017-11-28T01:38:56.630Z,90.57
2017-11-28T01:39:57.080Z,90.28
2017-11-28T01:40:57.476Z,90.09
2017-11-28T01:41:57.902Z,89.53
2017-11-28T01:42:58.323Z,90.28
2017-11-28T01:43:58.742Z,90.38
2017-11-28T01:44:59.163Z,91.71
2017-11-28T01:45:59.611Z,93.13
2017-11-28T01:47:00.008Z,93.70
2017-11-28T01:48:00.432Z,94.65
2017-11-28T01:49:00.856Z,94.37
2017-11-28T01:50:01.283Z,93.80
2017-11-28T01:51:01.695Z,94.74
2017-11-28T01:52:02.124Z,96.08
2017-11-28T01:53:02.544Z,95.22
2017-11-28T01:54:02.970Z,94.93
2017-11-28T01:55:03.391Z,95.98
2017-11-28T01:56:03.812Z,96.08
2017-11-28T01:57:04.229Z,95.98
2017-11-28T01:58:04.662Z,95.22
2017-11-28T01:59:05.077Z,97.60
2017-11-28T02:00:05.498Z,97.31
2017-11-28T02:01:05.920Z,96.98
2017-11-28T02:02:06.345Z,97.22
2017-11-28T02:03:06.771Z,96.79
2017-11-28T02:04:07.187Z,97.31
2017-11-28T02:05:07.610Z,96.79
2017-11-28T02:06:08.035Z,98.07
2017-11-28T02:07:08.462Z,98.21
2017-11-28T02:08:08.879Z,98.64
2017-11-28T02:09:09.314Z,97.83
2017-11-28T02:10:09.727Z,98.26
2017-11-28T02:11:10.143Z,96.88
2017-11-28T02:12:10.569Z,97.22
2017-11-28T02:13:10.990Z,97.74
2017-11-28T02:14:11.418Z,97.74
2017-11-28T02:15:11.839Z,97.36
2017-11-28T02:16:12.258Z,97.07
2017-11-28T02:17:12.678Z,96.88
2017-11-28T02:18:13.108Z,96.83
2017-11-28T02:19:13.529Z,95.98
2017-11-28T02:20:13.951Z,97.22
2017-11-28T02:21:14.404Z,98.83
2017-11-28T02:22:14.807Z,98.54
2017-11-28T02:23:15.217Z,98.92
2017-11-28T02:24:15.637Z,98.64
2017-11-28T02:25:16.066Z,98.07
2017-11-28T02:26:16.482Z,97.69
2017-11-28T02:27:16.907Z,97.50
2017-11-28T02:28:17.329Z,98.35
2017-11-28T02:29:17.750Z,99.02
2017-11-28T02:30:18.173Z,97.78
2017-11-28T02:31:18.601Z,97.97
2017-11-28T02:32:19.020Z,98.16
2017-11-28T02:33:19.440Z,98.83
2017-11-28T02:34:19.864Z,98.83
2017-11-28T02:35:20.284Z,98.69
2017-11-28T02:36:20.718Z,98.07
2017-11-28T02:37:21.135Z,97.69
2017-11-28T02:38:21.560Z,98.73
2017-11-28T02:39:21.975Z,97.97
2017-11-28T02:40:22.402Z,97.88
2017-11-28T02:41:22.822Z,97.69
2017-11-28T02:42:23.243Z,98.92
2017-11-28T02:43:23.666Z,98.54
2017-11-28T02:44:24.088Z,97.78
2017-11-28T02:45:24.510Z,98.64
2017-11-28T02:46:24.950Z,98.02
2017-11-28T02:47:25.356Z,97.88
2017-11-28T02:48:25.780Z,97.69
2017-11-28T02:49:26.204Z,97.97
2017-11-28T02:50:26.620Z,99.11
2017-11-28T02:51:27.049Z,98.73
2017-11-28T02:52:27.471Z,98.69
2017-11-28T02:53:27.893Z,98.97
2017-11-28T02:54:28.309Z,98.69
2017-11-28T02:55:28.739Z,98.31
2017-11-28T02:56:29.160Z,98.88
2017-11-28T02:57:29.579Z,98.79
2017-11-28T02:58:30.009Z,98.69
2017-11-28T02:59:30.424Z,98.59
2017-11-28T03:00:30.847Z,99.64
2017-11-28T03:01:31.272Z,98.69
2017-11-28T03:02:31.697Z,98.79
2017-11-28T03:03:32.114Z,99.99
2017-11-28T03:04:32.561Z,99.83
2017-11-28T03:05:32.958Z,99.44
2017-11-28T03:06:33.386Z,99.92
2017-11-28T03:07:33.807Z,99.73
2017-11-28T03:08:34.225Z,99.99
2017-11-28T03:09:34.654Z,99.99
2017-11-28T03:10:35.077Z,99.99
2017-11-28T03:11:35.498Z,99.99
2017-11-28T03:12:35.918Z,99.64
2017-11-28T03:13:36.341Z,99.16
2017-11-28T03:14:36.765Z,99.16
2017-11-28T03:15:37.186Z,98.59
2017-11-28T03:16:37.611Z,98.88
2017-11-28T03:17:38.032Z,98.73
2017-11-28T03:18:38.457Z,98.16
2017-11-28T03:19:38.889Z,97.92
2017-11-28T03:20:39.298Z,98.69
2017-11-28T03:21:39.720Z,97.92
2017-11-28T03:22:40.144Z,98.16
2017-11-28T03:23:40.569Z,97.69
2017-11-28T03:24:40.987Z,98.16
2017-11-28T03:25:41.411Z,98.54
2017-11-28T03:26:41.835Z,98.21
2017-11-28T03:27:42.256Z,97.92
2017-11-28T03:28:42.678Z,98.12
2017-11-28T03:29:43.097Z,97.83
2017-11-28T03:30:43.523Z,97.88
2017-11-28T03:31:43.946Z,98.07
2017-11-28T03:32:44.368Z,97.60
2017-11-28T03:33:44.786Z,98.12
2017-11-28T03:34:45.210Z,98.45
2017-11-28T03:35:45.630Z,99.21
2017-11-28T03:36:46.051Z,98.73
2017-11-28T03:37:46.481Z,97.88
2017-11-28T03:38:46.899Z,98.07
2017-11-28T03:39:47.322Z,97.41
2017-11-28T03:40:47.744Z,97.88
2017-11-28T03:41:48.167Z,95.75
2017-11-28T03:42:48.598Z,96.88
2017-11-28T03:43:49.013Z,97.55
2017-11-28T03:44:49.430Z,98.31
2017-11-28T03:45:49.855Z,97.78
2017-11-28T03:46:50.280Z,97.78
2017-11-28T03:47:50.699Z,97.88
2017-11-28T03:48:51.125Z,97.50
2017-11-28T03:49:51.546Z,98.07
2017-11-28T03:50:51.964Z,97.88
2017-11-28T03:51:52.386Z,98.16
2017-11-28T03:52:52.817Z,98.07
2017-11-28T03:53:53.239Z,97.60
2017-11-28T03:54:53.660Z,97.31
2017-11-28T03:55:54.075Z,97.60
2017-11-28T03:56:54.499Z,97.41
2017-11-28T03:57:54.925Z,97.55
2017-11-28T03:58:55.342Z,96.83
2017-11-28T03:59:55.767Z,96.79
2017-11-28T04:00:56.187Z,97.27
2017-11-28T04:01:56.609Z,97.27
2017-11-28T04:02:57.034Z,97.07
2017-11-28T04:03:57.462Z,97.07
2017-11-28T04:04:57.875Z,98.54
2017-11-28T04:05:58.306Z,98.69
2017-11-28T04:06:58.725Z,99.07
2017-11-28T04:07:59.141Z,98.83
2017-11-28T04:08:59.567Z,99.64
2017-11-28T04:10:00.009Z,99.83
2017-11-28T04:11:00.423Z,99.54
2017-11-28T04:12:00.837Z,98.97
2017-11-28T04:13:01.254Z,98.79
2017-11-28T04:14:01.678Z,99.35
2017-11-28T04:15:02.114Z,99.83
2017-11-28T04:16:02.528Z,99.83
2017-11-28T04:17:02.949Z,99.44
2017-11-28T04:18:03.368Z,99.54
2017-11-28T04:19:03.793Z,99.16
2017-11-28T04:20:04.216Z,98.79
2017-11-28T04:21:04.642Z,99.07
2017-11-28T04:22:05.067Z,98.59
2017-11-28T04:23:05.485Z,98.79
2017-11-28T04:24:05.908Z,99.26
2017-11-28T04:25:06.386Z,99.07
2017-11-28T04:26:06.753Z,99.26
2017-11-28T04:27:07.172Z,98.88
2017-11-28T04:28:07.596Z,99.35
2017-11-28T04:29:08.020Z,99.35
2017-11-28T04:30:08.438Z,99.54
2017-11-28T04:31:08.866Z,99.64
2017-11-28T04:32:09.286Z,99.54
2017-11-28T04:33:09.707Z,99.99
2017-11-28T04:34:10.132Z,99.99
2017-11-28T04:35:10.554Z,99.99
2017-11-28T04:36:10.975Z,99.99
2017-11-28T04:37:11.397Z,99.83
2017-11-28T04:38:11.833Z,99.92
2017-11-28T04:39:12.245Z,99.99
2017-11-28T04:40:12.669Z,99.83
2017-11-28T04:41:13.094Z,99.44
2017-11-28T04:42:13.513Z,99.99
2017-11-28T04:43:13.935Z,99.99
2017-11-28T04:44:14.365Z,99.99
2017-11-28T04:45:14.802Z,99.99
2017-11-28T04:46:15.204Z,99.99
2017-11-28T04:47:15.645Z,99.99
2017-11-28T04:48:16.046Z,99.99
2017-11-28T04:49:16.473Z,99.99
2017-11-28T04:50:16.898Z,99.99
2017-11-28T04:51:17.324Z,99.99
2017-11-28T04:52:17.738Z,99.99
2017-11-28T04:53:18.163Z,99.99
2017-11-28T04:54:18.583Z,99.99
2017-11-28T04:55:19.009Z,99.99
2017-11-28T04:56:19.437Z,99.99
2017-11-28T04:57:19.854Z,99.99
2017-11-28T04:58:20.281Z,99.99
2017-11-28T04:59:20.703Z,99.99
2017-11-28T05:00:21.123Z,99.99
2017-11-28T05:01:21.558Z,99.99
2017-11-28T05:02:21.970Z,99.99
2017-11-28T05:03:22.397Z,99.99
2017-11-28T05:04:22.813Z,99.99
2017-11-28T05:05:23.233Z,99.99
2017-11-28T05:06:23.661Z,99.99
2017-11-28T05:07:24.080Z,99.99
2017-11-28T05:08:24.502Z,99.99
2017-11-28T05:09:24.924Z,99.99
2017-11-28T05:10:25.352Z,99.99
2017-11-28T05:11:25.773Z,99.99
2017-11-28T05:12:26.198Z,99.99
2017-11-28T05:13:26.616Z,99.99
2017-11-28T05:14:27.045Z,99.99
2017-11-28T05:15:27.465Z,99.99
2017-11-28T05:16:27.890Z,99.99
2017-11-28T05:17:28.312Z,99.99
2017-11-28T05:18:28.729Z,99.99
2017-11-28T05:19:29.155Z,99.99
2017-11-28T05:20:29.578Z,99.99
2017-11-28T05:21:30.004Z,99.99
2017-11-28T05:22:30.425Z,99.99
2017-11-28T05:23:30.846Z,99.99
2017-11-28T05:24:31.309Z,99.99
2017-11-28T05:25:31.690Z,99.99
2017-11-28T05:26:32.129Z,99.99
2017-11-28T05:27:32.544Z,99.99
2017-11-28T05:28:32.963Z,99.99
2017-11-28T05:29:33.382Z,99.99
2017-11-28T05:30:33.811Z,99.99
2017-11-28T05:31:34.233Z,99.99
2017-11-28T05:32:34.654Z,99.99
2017-11-28T05:33:35.077Z,99.99
2017-11-28T05:34:35.521Z,99.99
2017-11-28T05:35:35.928Z,99.99
2017-11-28T05:36:36.346Z,99.99
2017-11-28T05:37:36.807Z,99.99
2017-11-28T05:38:37.191Z,99.99
2017-11-28T05:39:37.615Z,99.99
2017-11-28T05:40:38.036Z,99.99
2017-11-28T05:41:38.472Z,99.99
2017-11-28T05:42:38.889Z,99.99
2017-11-28T05:43:39.307Z,99.99
2017-11-28T05:44:39.728Z,99.99
2017-11-28T05:45:40.157Z,99.99
2017-11-28T05:46:40.580Z,99.99
2017-11-28T05:47:41.007Z,99.99
2017-11-28T05:48:41.420Z,99.99
2017-11-28T05:49:41.842Z,99.99
2017-11-28T05:50:42.275Z,99.99
2017-11-28T05:51:42.693Z,99.99
2017-11-28T05:52:43.111Z,99.99
2017-11-28T05:53:43.538Z,99.99
2017-11-28T05:54:43.963Z,99.99
2017-11-28T05:55:44.380Z,99.99
2017-11-28T05:56:44.803Z,99.99
2017-11-28T05:57:45.230Z,99.99
2017-11-28T05:58:45.651Z,99.99
2017-11-28T05:59:46.079Z,99.99
2017-11-28T06:00:46.499Z,99.99
2017-11-28T06:01:46.918Z,99.83
2017-11-28T06:02:47.342Z,99.83
2017-11-28T06:03:47.763Z,99.99
2017-11-28T06:04:48.192Z,99.99
2017-11-28T06:05:48.614Z,99.99
2017-11-28T06:06:49.049Z,99.83
2017-11-28T06:07:49.455Z,99.99
2017-11-28T06:08:49.881Z,99.92
2017-11-28T06:09:50.303Z,99.99
2017-11-28T06:10:50.727Z,99.92
2017-11-28T06:11:51.154Z,99.99
2017-11-28T06:12:51.573Z,99.99
2017-11-28T06:13:51.999Z,99.99
2017-11-28T06:14:52.415Z,99.99
2017-11-28T06:15:52.840Z,99.83
2017-11-28T06:16:53.265Z,99.99
2017-11-28T06:17:53.688Z,99.99
2017-11-28T06:18:54.112Z,99.99
2017-11-28T06:19:54.535Z,99.99
2017-11-28T06:20:54.952Z,99.99
2017-11-28T06:21:55.379Z,99.92
2017-11-28T06:22:55.806Z,99.83
2017-11-28T06:23:56.224Z,99.99
2017-11-28T06:24:56.644Z,99.99
2017-11-28T06:25:57.069Z,99.99
2017-11-28T06:26:57.520Z,99.99
2017-11-28T06:27:57.921Z,99.54
2017-11-28T06:28:58.339Z,99.44
2017-11-28T06:29:58.760Z,99.73
2017-11-28T06:30:59.183Z,99.35
2017-11-28T06:31:59.607Z,99.64
2017-11-28T06:33:00.032Z,99.54
2017-11-28T06:34:00.452Z,99.26
2017-11-28T06:35:00.877Z,99.83
2017-11-28T06:36:01.304Z,99.64
2017-11-28T06:37:01.725Z,99.77
2017-11-28T06:38:02.142Z,99.99
2017-11-28T06:39:02.568Z,99.99
2017-11-28T06:40:02.990Z,99.54
2017-11-28T06:41:03.420Z,99.26
2017-11-28T06:42:03.840Z,99.26
2017-11-28T06:43:04.260Z,99.44
2017-11-28T06:44:04.688Z,98.97
2017-11-28T06:45:05.104Z,99.11
2017-11-28T06:46:05.530Z,99.73
2017-11-28T06:47:05.947Z,99.44
2017-11-28T06:48:06.378Z,99.54
2017-11-28T06:49:06.797Z,98.97
2017-11-28T06:50:07.216Z,98.69
2017-11-28T06:51:07.641Z,98.69
2017-11-28T06:52:08.073Z,99.07
2017-11-28T06:53:08.485Z,99.77
2017-11-28T06:54:08.909Z,99.26
2017-11-28T06:55:09.331Z,99.44
2017-11-28T06:56:09.760Z,99.44
2017-11-28T06:57:10.202Z,99.54
2017-11-28T06:58:10.610Z,99.64
2017-11-28T06:59:11.032Z,98.97
2017-11-28T07:00:11.456Z,98.88
2017-11-28T07:01:11.869Z,98.88
2017-11-28T07:02:12.293Z,98.50
2017-11-28T07:03:12.716Z,98.88
2017-11-28T07:04:13.141Z,99.35
2017-11-28T07:05:13.559Z,99.64
2017-11-28T07:06:13.983Z,98.88
2017-11-28T07:07:14.405Z,98.69
2017-11-28T07:08:14.832Z,99.07
2017-11-28T07:09:15.250Z,98.69
2017-11-28T07:10:15.673Z,99.64
2017-11-28T07:11:16.096Z,98.21
2017-11-28T07:12:16.519Z,99.07
2017-11-28T07:13:16.965Z,99.07
2017-11-28T07:14:17.366Z,98.88
2017-11-28T07:15:17.790Z,99.64
2017-11-28T07:16:18.225Z,99.64
2017-11-28T07:17:18.632Z,98.31
2017-11-28T07:18:19.058Z,99.64
2017-11-28T07:19:19.480Z,99.44
2017-11-28T07:20:19.901Z,98.21
2017-11-28T07:21:20.323Z,99.07
2017-11-28T07:22:20.750Z,98.97
2017-11-28T07:23:21.170Z,98.40
2017-11-28T07:24:21.592Z,98.59
2017-11-28T07:25:22.016Z,99.64
2017-11-28T07:26:22.437Z,99.73
2017-11-28T07:27:22.863Z,99.26
2017-11-28T07:28:23.311Z,99.44
2017-11-28T07:29:23.745Z,98.69
2017-11-28T07:30:24.134Z,98.88
2017-11-28T07:31:24.551Z,98.12
2017-11-28T07:32:24.983Z,98.50
2017-11-28T07:33:25.398Z,98.88
2017-11-28T07:34:25.878Z,98.31
2017-11-28T07:35:26.241Z,98.31
2017-11-28T07:36:26.705Z,99.44
2017-11-28T07:37:27.101Z,99.07
2017-11-28T07:38:27.526Z,99.16
2017-11-28T07:39:27.938Z,99.16
2017-11-28T07:40:28.380Z,99.64
2017-11-28T07:41:28.782Z,99.99
2017-11-28T07:42:29.258Z,99.35
2017-11-28T07:43:29.643Z,99.73
2017-11-28T07:44:30.067Z,99.64
2017-11-28T07:45:30.483Z,99.54
2017-11-28T07:46:30.898Z,99.50
2017-11-28T07:47:31.319Z,99.21
2017-11-28T07:48:31.744Z,99.83
2017-11-28T07:49:32.169Z,99.92
2017-11-28T07:50:32.587Z,99.99
2017-11-28T07:51:33.040Z,99.73
2017-11-28T07:52:33.515Z,99.73
2017-11-28T07:53:33.873Z,99.54
2017-11-28T07:54:34.284Z,99.88
2017-11-28T07:55:34.710Z,99.73
2017-11-28T07:56:35.131Z,99.99
2017-11-28T07:57:35.558Z,99.99
2017-11-28T07:58:35.980Z,99.73
2017-11-28T07:59:36.402Z,99.99
2017-11-28T08:00:36.835Z,99.99
2017-11-28T08:01:37.248Z,99.99
2017-11-28T08:02:37.671Z,99.99
2017-11-28T08:03:38.094Z,99.92
2017-11-28T08:04:38.538Z,99.99
2017-11-28T08:05:38.979Z,99.99
2017-11-28T08:06:39.403Z,99.99
2017-11-28T08:07:39.795Z,99.99
2017-11-28T08:08:40.238Z,99.99
2017-11-28T08:09:40.642Z,99.99
2017-11-28T08:10:41.073Z,99.99
2017-11-28T08:11:41.489Z,99.99
2017-11-28T08:12:41.907Z,99.99
2017-11-28T08:13:42.328Z,99.99
2017-11-28T08:14:42.758Z,99.99
2017-11-28T08:15:43.177Z,99.73
2017-11-28T08:16:43.598Z,99.99
2017-11-28T08:17:44.023Z,99.99
2017-11-28T08:18:44.444Z,99.99
2017-11-28T08:19:44.868Z,99.99
2017-11-28T08:20:45.292Z,99.99
2017-11-28T08:21:45.713Z,99.99
2017-11-28T08:22:46.137Z,99.99
2017-11-28T08:23:46.566Z,99.99
2017-11-28T08:24:46.991Z,99.99
2017-11-28T08:25:47.409Z,99.99
2017-11-28T08:26:47.832Z,99.99
2017-11-28T08:27:48.260Z,99.99
2017-11-28T08:28:48.693Z,99.99
2017-11-28T08:29:49.109Z,99.99
2017-11-28T08:30:49.528Z,99.99
2017-11-28T08:31:49.951Z,99.99
2017-11-28T08:32:50.378Z,99.99
2017-11-28T08:33:50.800Z,99.99
2017-11-28T08:34:51.222Z,99.99
2017-11-28T08:35:51.646Z,99.99
2017-11-28T08:36:52.075Z,99.99
2017-11-28T08:37:52.500Z,99.99
2017-11-28T08:38:52.925Z,99.99
2017-11-28T08:39:53.347Z,99.99
2017-11-28T08:40:53.769Z,99.99
2017-11-28T08:41:54.191Z,99.99
2017-11-28T08:42:54.642Z,99.99
2017-11-28T08:43:55.043Z,99.99
2017-11-28T08:44:55.474Z,99.99
2017-11-28T08:45:55.889Z,99.99
2017-11-28T08:46:56.312Z,99.99
2017-11-28T08:47:56.746Z,99.99
2017-11-28T08:48:57.166Z,99.99
2017-11-28T08:49:57.589Z,99.99
2017-11-28T08:50:58.010Z,99.99
2017-11-28T08:51:58.432Z,99.99
2017-11-28T08:52:58.872Z,99.99
2017-11-28T08:53:59.281Z,99.99
2017-11-28T08:54:59.707Z,99.99
2017-11-28T08:56:00.128Z,99.99
2017-11-28T08:57:00.553Z,99.99
2017-11-28T08:58:00.975Z,99.99
2017-11-28T08:59:01.400Z,99.99
2017-11-28T09:00:01.826Z,99.99
2017-11-28T09:01:02.257Z,99.99
2017-11-28T09:02:02.676Z,99.99
2017-11-28T09:03:03.095Z,99.99
2017-11-28T09:04:03.521Z,99.99
2017-11-28T09:05:03.953Z,99.99
2017-11-28T09:06:04.379Z,99.99
2017-11-28T09:07:05.023Z,99.99
2017-11-28T09:12:59.756Z,99.99
2017-11-28T09:19:38.418Z,99.99
2017-11-28T09:23:26.195Z,99.99
2017-11-28T09:25:40.910Z,99.99
2017-11-28T09:26:41.322Z,99.99
2017-11-28T09:28:35.890Z,99.99
2017-11-28T09:29:36.289Z,99.99
2017-11-28T09:31:30.861Z,99.99
2017-11-28T09:35:20.679Z,99.99
2017-11-28T09:36:21.080Z,99.99
2017-11-28T09:37:21.493Z,99.99
2017-11-28T09:38:21.916Z,99.99
2017-11-28T09:39:22.359Z,99.99
2017-11-28T09:40:22.760Z,99.99
2017-11-28T09:41:23.192Z,99.99
2017-11-28T09:42:23.623Z,99.99
2017-11-28T09:43:24.033Z,99.99
2017-11-28T09:44:24.462Z,99.99
2017-11-28T09:45:24.883Z,99.99
2017-11-28T09:46:25.311Z,99.99
2017-11-28T09:47:25.731Z,99.99
2017-11-28T09:48:26.161Z,99.99
2017-11-28T09:49:26.585Z,99.99
2017-11-28T09:50:27.013Z,99.99
2017-11-28T09:51:27.430Z,99.99
2017-11-28T09:52:27.887Z,99.99
2017-11-28T09:53:28.292Z,99.99
2017-11-28T09:54:28.706Z,99.99
2017-11-28T09:55:29.136Z,99.99
2017-11-28T09:56:29.549Z,99.99
2017-11-28T09:57:29.978Z,99.99
2017-11-28T09:58:30.409Z,99.99
2017-11-28T09:59:30.823Z,99.99
2017-11-28T10:00:31.259Z,99.99
2017-11-28T10:01:31.673Z,99.99
2017-11-28T10:02:32.106Z,99.99
2017-11-28T10:03:32.524Z,99.99
2017-11-28T10:04:32.950Z,99.99
2017-11-28T10:05:33.369Z,99.99
2017-11-28T10:06:33.804Z,99.99
2017-11-28T10:07:34.218Z,99.99
2017-11-28T10:08:34.645Z,99.99
2017-11-28T10:09:35.069Z,99.99
2017-11-28T10:10:35.505Z,99.99
2017-11-28T10:11:35.918Z,99.99
2017-11-28T10:12:36.344Z,99.99
2017-11-28T10:13:36.771Z,99.99
2017-11-28T10:14:37.191Z,99.99
2017-11-28T10:15:37.613Z,99.99
2017-11-28T10:16:38.108Z,99.99
2017-11-28T10:17:38.459Z,99.99
2017-11-28T10:18:38.888Z,99.99
2017-11-28T10:19:39.316Z,99.99
2017-11-28T10:20:39.737Z,99.99
2017-11-28T10:21:40.161Z,99.99
2017-11-28T10:22:40.595Z,99.99
2017-11-28T10:23:41.011Z,99.99
2017-11-28T10:24:41.436Z,99.99
2017-11-28T10:25:41.875Z,99.99
2017-11-28T10:26:42.316Z,99.99
2017-11-28T10:27:42.711Z,99.99
2017-11-28T10:28:43.133Z,99.99
2017-11-28T10:29:43.556Z,99.99
2017-11-28T10:30:43.986Z,99.99
2017-11-28T10:31:44.414Z,99.99
2017-11-28T10:32:44.830Z,99.99
2017-11-28T10:33:45.253Z,99.99
2017-11-28T10:34:45.676Z,99.99
2017-11-28T10:35:46.100Z,99.99
2017-11-28T10:36:49.433Z,99.99
2017-11-28T10:37:46.953Z,99.99
2017-11-28T10:38:47.373Z,99.99
2017-11-28T10:39:47.808Z,99.99
2017-11-28T10:40:48.223Z,99.99
2017-11-28T10:41:48.650Z,99.99
2017-11-28T10:42:49.077Z,99.99
2017-11-28T10:43:49.497Z,99.99
2017-11-28T10:44:49.930Z,99.99
2017-11-28T10:45:50.346Z,99.99
2017-11-28T10:46:50.768Z,99.99
2017-11-28T10:47:51.194Z,99.99
2017-11-28T10:48:51.620Z,99.99
2017-11-28T10:49:52.048Z,99.99
2017-11-28T10:50:52.467Z,99.99
2017-11-28T10:51:52.892Z,99.99
2017-11-28T10:52:53.324Z,99.99
2017-11-28T10:53:53.753Z,99.99
2017-11-28T10:54:54.167Z,99.99
2017-11-28T10:55:54.594Z,99.99
2017-11-28T10:56:55.023Z,99.99
2017-11-28T10:57:55.442Z,99.99
2017-11-28T10:58:55.863Z,99.99
2017-11-28T10:59:56.325Z,99.99
2017-11-28T11:00:56.719Z,99.99
2017-11-28T11:01:57.150Z,99.99
2017-11-28T11:02:57.565Z,99.99
2017-11-28T11:03:57.990Z,99.99
2017-11-28T11:04:58.419Z,99.99
2017-11-28T11:05:58.841Z,99.99
2017-11-28T11:06:59.261Z,99.99
2017-11-28T11:07:59.689Z,99.99
2017-11-28T11:09:00.116Z,99.99
2017-11-28T11:10:00.548Z,99.99
2017-11-28T11:11:00.976Z,99.99
2017-11-28T11:12:01.392Z,99.99
2017-11-28T11:13:01.811Z,99.99
2017-11-28T11:14:02.234Z,99.99
2017-11-28T11:15:02.673Z,99.99
2017-11-28T11:16:03.095Z,99.99
2017-11-28T11:17:03.553Z,99.99
2017-11-28T11:18:03.941Z,99.99
2017-11-28T11:19:04.362Z,99.99
2017-11-28T11:20:04.787Z,99.99
2017-11-28T11:21:05.212Z,99.99
2017-11-28T11:22:05.658Z,99.99
2017-11-28T11:23:06.116Z,99.99
2017-11-28T11:24:06.492Z,99.99
2017-11-28T11:25:06.930Z,99.99
2017-11-28T11:26:07.335Z,99.99
2017-11-28T11:27:07.765Z,99.99
2017-11-28T11:28:08.186Z,99.99
2017-11-28T11:29:08.611Z,99.99
2017-11-28T11:30:09.060Z,99.99
2017-11-28T11:31:09.463Z,99.99
2017-11-28T11:32:09.889Z,99.99
2017-11-28T11:33:10.343Z,99.99
2017-11-28T11:34:10.755Z,99.99
2017-11-28T11:35:11.171Z,99.99
2017-11-28T11:36:11.600Z,99.99
2017-11-28T11:37:12.013Z,99.99
2017-11-28T11:38:12.439Z,99.99
2017-11-28T11:39:12.865Z,99.99
2017-11-28T11:40:13.294Z,99.99
2017-11-28T11:41:13.714Z,99.99
2017-11-28T11:42:14.153Z,99.99
2017-11-28T11:43:14.564Z,99.99
2017-11-28T11:44:14.991Z,99.99
2017-11-28T11:45:15.421Z,99.99
2017-11-28T11:46:15.869Z,99.99
2017-11-28T11:47:16.267Z,99.99
2017-11-28T11:48:16.688Z,99.99
2017-11-28T11:49:17.137Z,99.99
2017-11-28T11:50:17.550Z,99.99
2017-11-28T11:51:17.968Z,99.99
2017-11-28T11:52:18.396Z,99.99
2017-11-28T11:53:18.818Z,99.99
2017-11-28T11:54:19.246Z,99.99
2017-11-28T11:55:19.671Z,99.99
2017-11-28T11:56:20.100Z,99.99
2017-11-28T11:57:20.520Z,99.99
2017-11-28T11:58:20.946Z,99.99
2017-11-28T11:59:21.373Z,99.99
2017-11-28T12:00:21.798Z,99.99
2017-11-28T12:01:22.222Z,99.99
2017-11-28T12:02:22.647Z,99.99
2017-11-28T12:03:23.111Z,99.99
2017-11-28T12:04:23.501Z,99.99
2017-11-28T12:05:23.988Z,99.99
2017-11-28T12:06:24.350Z,99.99
2017-11-28T12:07:24.784Z,99.99
2017-11-28T12:08:25.201Z,99.99
2017-11-28T12:09:25.625Z,99.99
2017-11-28T12:10:26.051Z,99.99
2017-11-28T12:11:26.475Z,99.99
2017-11-28T12:12:26.898Z,99.99
2017-11-28T12:13:27.333Z,99.99
2017-11-28T12:14:27.757Z,99.99
2017-11-28T12:15:28.179Z,99.99
2017-11-28T12:16:28.600Z,99.99
2017-11-28T12:17:29.067Z,99.99
2017-11-28T12:18:29.494Z,99.99
2017-11-28T12:19:29.896Z,99.99
2017-11-28T12:20:30.307Z,99.99
2017-11-28T12:21:30.732Z,99.99
2017-11-28T12:22:31.157Z,99.99
2017-11-28T12:23:31.576Z,99.99
2017-11-28T12:24:32.009Z,99.99
2017-11-28T12:25:32.442Z,99.99
2017-11-28T12:26:32.863Z,99.99
2017-11-28T12:27:33.312Z,99.99
2017-11-28T12:28:33.726Z,99.99
2017-11-28T12:29:34.156Z,99.99
2017-11-28T12:30:34.588Z,99.99
2017-11-28T12:31:34.995Z,99.99
2017-11-28T12:32:35.412Z,99.99
2017-11-28T12:33:35.837Z,99.99
2017-11-28T12:34:36.262Z,99.99
2017-11-28T12:35:36.688Z,99.99
2017-11-28T12:36:37.105Z,99.99
2017-11-28T12:37:37.543Z,99.99
2017-11-28T12:38:37.964Z,99.99
2017-11-28T12:39:38.392Z,99.99
2017-11-28T12:40:38.831Z,99.99
2017-11-28T12:41:39.262Z,99.99
2017-11-28T12:42:39.666Z,99.99
2017-11-28T12:43:40.087Z,99.99
2017-11-28T12:44:40.512Z,99.99
2017-11-28T12:45:40.936Z,99.99
2017-11-28T12:46:41.372Z,99.99
2017-11-28T12:47:41.789Z,99.99
2017-11-28T12:48:42.212Z,99.99
2017-11-28T12:49:42.644Z,99.99
2017-11-28T12:50:43.066Z,99.99
2017-11-28T12:51:43.486Z,99.99
2017-11-28T12:52:43.924Z,99.99
2017-11-28T12:53:44.345Z,99.99
2017-11-28T12:54:44.800Z,99.99
2017-11-28T12:55:45.200Z,99.99
2017-11-28T12:56:45.617Z,99.99
2017-11-28T12:57:46.037Z,99.99
2017-11-28T12:58:46.462Z,99.99
2017-11-28T12:59:46.885Z,99.99
2017-11-28T13:00:47.308Z,99.99
2017-11-28T13:01:47.735Z,99.99
2017-11-28T13:02:48.161Z,99.99
2017-11-28T13:03:48.584Z,99.99
2017-11-28T13:04:49.027Z,99.99
2017-11-28T13:05:49.442Z,99.99
2017-11-28T13:06:49.896Z,99.99
2017-11-28T13:07:50.286Z,99.99
2017-11-28T13:08:50.707Z,99.99
2017-11-28T13:09:51.151Z,99.99
2017-11-28T13:10:51.563Z,99.99
2017-11-28T13:11:51.986Z,99.99
2017-11-28T13:12:52.409Z,99.99
2017-11-28T13:13:52.834Z,99.99
2017-11-28T13:14:53.258Z,99.99
2017-11-28T13:15:53.737Z,99.99
2017-11-28T13:16:54.153Z,99.99